Time;durP1;ratioP1;P1;durP2;ratioP2;P2;SDS_P1;SDS_P2;PMS_P1;PMS_P2;Temp;Humidity;BMP_temperature;BMP_pressure;BME280_temperature;BME280_humidity;BME280_pressure;Samples;Min_cycle;Max_cycle;Signal;HPM_P1;HPM_P2
2021/01/08 00:01:45;;;;;;;6.20;3.97;;;5.10;99.90;;;;;;5052626;28;20120;-68
2021/01/08 00:04:11;;;;;;;6.60;4.22;;;5.10;99.90;;;;;;5052680;28;20037;-66
2021/01/08 00:06:36;;;;;;;5.55;3.70;;;5.10;99.90;;;;;;5053921;28;20757;-65
2021/01/08 00:09:02;;;;;;;7.32;4.35;;;5.10;99.90;;;;;;5053935;28;20017;-65
2021/01/08 00:11:28;;;;;;;7.32;4.20;;;5.10;99.90;;;;;;5054084;28;20052;-65
2021/01/08 00:13:54;;;;;;;6.60;4.60;;;5.10;99.90;;;;;;5053521;28;20099;-65
2021/01/08 00:16:20;;;;;;;9.77;5.03;;;5.10;99.90;;;;;;5052791;28;20075;-65
2021/01/08 00:18:46;;;;;;;8.88;5.60;;;5.10;99.90;;;;;;5052270;28;20025;-66
2021/01/08 00:21:15;;;;;;;8.32;5.20;;;5.10;99.90;;;;;;5052622;28;20025;-65
2021/01/08 00:23:41;;;;;;;8.68;5.63;;;5.10;99.90;;;;;;5053936;28;20066;-65
2021/01/08 00:26:07;;;;;;;8.60;5.65;;;5.10;99.90;;;;;;5053285;28;20104;-65
2021/01/08 00:28:32;;;;;;;10.45;6.15;;;5.10;99.90;;;;;;5049861;28;20029;-66
2021/01/08 00:30:58;;;;;;;8.82;5.90;;;5.20;99.90;;;;;;5033382;28;20053;-66
2021/01/08 00:33:24;;;;;;;8.55;5.75;;;5.20;99.90;;;;;;5032150;28;20040;-66
2021/01/08 00:35:50;;;;;;;9.88;6.45;;;5.20;99.90;;;;;;5033606;28;20030;-66
2021/01/08 00:38:16;;;;;;;9.68;6.22;;;5.20;99.90;;;;;;5033720;28;20036;-65
2021/01/08 00:40:41;;;;;;;10.05;6.68;;;5.20;99.90;;;;;;5033161;28;20090;-65
2021/01/08 00:43:07;;;;;;;10.38;6.22;;;5.20;99.90;;;;;;5043007;28;20029;-66
2021/01/08 00:45:33;;;;;;;10.80;6.80;;;5.30;99.90;;;;;;5036235;28;20040;-66
2021/01/08 00:47:59;;;;;;;11.60;6.70;;;5.20;99.90;;;;;;5033315;28;20512;-66
2021/01/08 00:50:25;;;;;;;11.82;7.43;;;5.30;99.90;;;;;;5032168;28;20030;-65
2021/01/08 00:52:50;;;;;;;11.60;7.57;;;5.30;99.90;;;;;;5032165;28;20029;-65
2021/01/08 00:55:16;;;;;;;10.15;7.00;;;5.30;99.90;;;;;;5033478;28;20196;-65
2021/01/08 00:57:42;;;;;;;10.45;6.65;;;5.30;99.90;;;;;;5033055;28;20034;-65
2021/01/08 01:00:08;;;;;;;9.00;5.90;;;5.30;99.90;;;;;;5033050;28;20108;-65
2021/01/08 01:02:35;;;;;;;9.32;6.40;;;5.30;99.90;;;;;;5031461;28;20114;-66
2021/01/08 01:05:01;;;;;;;9.43;6.32;;;5.30;99.90;;;;;;5033383;28;20460;-65
2021/01/08 01:07:26;;;;;;;9.88;6.47;;;5.30;99.90;;;;;;5031876;28;20392;-66
2021/01/08 01:09:52;;;;;;;9.63;5.70;;;5.40;99.90;;;;;;5033250;28;20026;-65
2021/01/08 01:12:18;;;;;;;11.05;6.50;;;5.30;99.90;;;;;;5033121;28;20474;-65
2021/01/08 01:14:44;;;;;;;8.98;6.10;;;5.30;99.90;;;;;;5031658;28;20021;-66
2021/01/08 01:17:10;;;;;;;8.30;5.15;;;5.30;99.90;;;;;;5031693;28;20063;-65
2021/01/08 01:19:36;;;;;;;8.57;5.50;;;5.40;99.90;;;;;;5032985;28;20021;-65
2021/01/08 01:22:02;;;;;;;7.55;4.90;;;5.30;99.90;;;;;;5032794;28;20075;-66
2021/01/08 01:24:28;;;;;;;7.82;5.10;;;5.30;99.90;;;;;;5031909;28;20025;-65
2021/01/08 01:26:58;;;;;;;7.78;5.30;;;5.40;99.90;;;;;;5031719;28;20167;-65
2021/01/08 01:29:24;;;;;;;7.38;5.45;;;5.40;99.90;;;;;;5032977;28;20030;-65
2021/01/08 01:31:50;;;;;;;8.45;5.85;;;5.40;99.90;;;;;;5031064;28;20025;-72
2021/01/08 01:34:16;;;;;;;8.07;5.70;;;5.40;99.90;;;;;;5033099;28;20026;-65
2021/01/08 01:36:42;;;;;;;8.65;5.57;;;5.30;99.90;;;;;;5032809;28;20063;-65
2021/01/08 01:39:08;;;;;;;9.13;5.28;;;5.30;99.90;;;;;;5031732;28;20026;-65
2021/01/08 01:41:33;;;;;;;8.27;5.50;;;5.40;99.90;;;;;;5031455;28;20061;-66
2021/01/08 01:43:59;;;;;;;7.03;5.00;;;5.40;99.90;;;;;;5032735;28;20025;-65
2021/01/08 01:46:26;;;;;;;8.10;5.40;;;5.30;99.90;;;;;;5031548;28;20418;-65
2021/01/08 01:48:52;;;;;;;8.00;5.65;;;5.30;99.90;;;;;;5031553;28;20025;-65
2021/01/08 01:51:20;;;;;;;6.97;5.20;;;5.30;99.90;;;;;;5031578;28;20036;-65
2021/01/08 01:53:47;;;;;;;8.98;6.05;;;5.30;99.90;;;;;;5031240;28;20025;-66
2021/01/08 01:56:13;;;;;;;9.18;6.10;;;5.30;99.90;;;;;;5031241;28;20053;-65
2021/01/08 01:58:38;;;;;;;8.20;5.82;;;5.20;99.70;;;;;;5032512;28;20032;-65
2021/01/08 02:01:04;;;;;;;8.52;6.10;;;5.20;99.80;;;;;;5031319;28;20033;-65
2021/01/08 02:03:39;;;;;;;7.95;5.85;;;5.20;99.80;;;;;;5031534;28;20337;-66
2021/01/08 02:06:08;;;;;;;9.60;6.18;;;5.20;99.90;;;;;;5032504;28;20025;-66
2021/01/08 02:08:37;;;;;;;9.63;6.60;;;5.20;99.90;;;;;;5031454;28;20117;-65
2021/01/08 02:11:11;;;;;;;12.77;7.13;;;5.20;99.90;;;;;;5034304;28;20018;-66
2021/01/08 02:14:31;;;;;;;14.00;7.15;;;5.20;99.90;;;;;;5036002;28;20088;-65
2021/01/08 02:16:58;;;;;;;11.50;6.65;;;5.10;99.80;;;;;;5045437;28;20032;-65
2021/01/08 02:19:41;;;;;;;9.18;5.82;;;5.10;99.80;;;;;;5051790;28;20476;-65
2021/01/08 02:22:32;;;;;;;12.57;6.68;;;5.10;99.80;;;;;;5034870;28;20112;-65
2021/01/08 02:25:15;;;;;;;9.15;5.90;;;5.10;99.90;;;;;;5036266;28;20013;-65
2021/01/08 02:28:03;;;;;;;11.48;6.95;;;5.10;99.90;;;;;;5034544;28;20063;-65
2021/01/08 02:30:33;;;;;;;11.10;6.00;;;5.00;99.70;;;;;;5035487;28;20053;-66
2021/01/08 02:33:01;;;;;;;9.90;6.25;;;5.10;99.70;;;;;;5034437;28;20033;-65
2021/01/08 02:35:28;;;;;;;11.38;5.90;;;5.10;99.70;;;;;;5034532;28;20510;-65
2021/01/08 02:37:56;;;;;;;9.68;6.43;;;5.00;99.80;;;;;;5034180;28;20070;-65
2021/01/08 02:40:23;;;;;;;12.10;7.28;;;5.00;99.80;;;;;;5034239;28;20061;-65
2021/01/08 02:42:51;;;;;;;11.30;7.93;;;5.00;99.70;;;;;;5034378;28;20030;-65
2021/01/08 02:45:17;;;;;;;10.73;7.10;;;5.00;99.50;;;;;;5035425;28;20689;-65
2021/01/08 02:47:43;;;;;;;13.18;7.55;;;5.00;99.50;;;;;;5034438;28;20018;-65
2021/01/08 02:50:09;;;;;;;13.25;8.98;;;5.00;99.40;;;;;;5033981;28;20034;-65
2021/01/08 02:52:41;;;;;;;11.25;7.70;;;5.00;99.30;;;;;;5034085;28;20116;-65
2021/01/08 02:55:10;;;;;;;14.60;8.10;;;5.00;99.30;;;;;;5034229;28;20038;-65
2021/01/08 02:57:36;;;;;;;12.02;7.90;;;5.00;99.40;;;;;;5035228;28;20395;-65
2021/01/08 03:00:04;;;;;;;12.18;8.32;;;5.00;99.30;;;;;;5034197;28;20034;-65
2021/01/08 03:02:31;;;;;;;14.68;9.30;;;4.90;99.30;;;;;;5049061;28;20025;-65
2021/01/08 03:04:57;;;;;;;13.57;8.63;;;5.00;99.20;;;;;;5034020;28;20025;-65
2021/01/08 03:07:25;;;;;;;14.40;9.18;;;4.90;99.00;;;;;;5034990;28;20120;-65
2021/01/08 03:09:51;;;;;;;14.57;8.50;;;4.90;99.10;;;;;;5033636;28;20464;-66
2021/01/08 03:12:18;;;;;;;14.35;9.30;;;4.90;99.20;;;;;;5033653;28;20029;-65
2021/01/08 03:14:45;;;;;;;13.85;8.18;;;4.90;99.40;;;;;;5035116;28;20021;-65
2021/01/08 03:17:12;;;;;;;15.07;8.82;;;4.90;99.40;;;;;;5035344;28;20105;-65
2021/01/08 03:19:38;;;;;;;13.13;8.05;;;4.90;99.30;;;;;;5033580;28;20021;-65
2021/01/08 03:22:04;;;;;;;18.35;10.65;;;4.90;99.30;;;;;;5033074;28;20022;-66
2021/01/08 03:24:30;;;;;;;15.48;9.57;;;4.90;99.30;;;;;;5033389;28;20029;-66
2021/01/08 03:26:56;;;;;;;16.63;9.20;;;4.90;99.30;;;;;;5034049;28;20376;-66
2021/01/08 03:29:21;;;;;;;17.60;10.07;;;4.90;99.40;;;;;;5033577;28;20032;-66
2021/01/08 03:31:47;;;;;;;18.60;9.90;;;4.90;99.30;;;;;;5041364;28;20031;-65
2021/01/08 03:34:13;;;;;;;18.30;9.90;;;4.90;99.20;;;;;;5039559;28;20060;-66
2021/01/08 03:36:39;;;;;;;18.20;10.10;;;5.00;99.20;;;;;;5034371;28;20068;-65
2021/01/08 03:39:04;;;;;;;18.95;10.20;;;4.90;99.20;;;;;;5034798;28;20029;-65
2021/01/08 03:41:30;;;;;;;17.70;10.35;;;4.90;99.30;;;;;;5034305;28;20491;-65
2021/01/08 03:43:56;;;;;;;17.90;10.45;;;5.00;99.40;;;;;;5034216;28;20060;-66
2021/01/08 03:46:21;;;;;;;19.83;10.90;;;5.00;99.40;;;;;;5033404;28;20022;-65
2021/01/08 03:48:47;;;;;;;19.25;10.90;;;5.00;99.40;;;;;;5034328;28;20376;-65
2021/01/08 03:51:13;;;;;;;20.40;11.68;;;5.00;99.40;;;;;;5034359;28;20483;-65
2021/01/08 03:53:38;;;;;;;19.33;10.18;;;5.00;99.40;;;;;;5032521;28;20041;-66
2021/01/08 03:56:04;;;;;;;21.23;11.40;;;5.10;99.30;;;;;;5032889;28;20049;-65
2021/01/08 03:58:30;;;;;;;25.35;12.10;;;5.10;99.30;;;;;;5034394;28;20052;-65
2021/01/08 04:00:56;;;;;;;23.23;11.38;;;5.00;99.30;;;;;;5032794;28;20018;-65
2021/01/08 04:03:22;;;;;;;25.63;11.80;;;5.00;99.20;;;;;;5034237;28;20037;-65
2021/01/08 04:05:47;;;;;;;24.67;13.07;;;5.00;99.10;;;;;;5033882;28;20018;-66
2021/01/08 04:08:13;;;;;;;20.80;12.05;;;5.00;99.20;;;;;;5033727;28;20037;-66
2021/01/08 04:10:39;;;;;;;23.70;12.18;;;5.00;99.10;;;;;;5032464;28;20064;-65
2021/01/08 04:13:05;;;;;;;25.90;13.48;;;5.00;99.10;;;;;;5033819;28;20108;-65
2021/01/08 04:15:30;;;;;;;24.75;12.90;;;5.00;99.00;;;;;;5032671;28;20040;-66
2021/01/08 04:17:56;;;;;;;25.70;13.85;;;5.00;98.90;;;;;;5033523;28;20033;-66
2021/01/08 04:20:22;;;;;;;29.50;14.38;;;5.00;98.80;;;;;;5034023;28;20026;-66
2021/01/08 04:22:48;;;;;;;29.15;16.35;;;4.90;98.90;;;;;;5032643;28;20471;-65
2021/01/08 04:25:13;;;;;;;30.05;15.43;;;4.90;98.90;;;;;;5033918;28;20503;-66
2021/01/08 04:27:39;;;;;;;30.98;15.38;;;4.90;99.00;;;;;;5032448;28;20025;-66
2021/01/08 04:30:06;;;;;;;26.85;15.02;;;4.90;99.00;;;;;;5032154;28;20112;-66
2021/01/08 04:32:32;;;;;;;31.65;15.73;;;5.00;99.00;;;;;;5031599;28;20033;-66
2021/01/08 04:34:58;;;;;;;24.58;13.75;;;4.90;98.90;;;;;;5031903;28;20117;-66
2021/01/08 04:37:24;;;;;;;26.38;14.07;;;4.90;98.90;;;;;;5032074;28;20025;-65
2021/01/08 04:39:49;;;;;;;29.02;15.13;;;4.90;98.90;;;;;;5032007;28;20049;-67
2021/01/08 04:42:15;;;;;;;26.50;14.63;;;5.00;98.70;;;;;;5033376;28;20029;-67
2021/01/08 04:44:42;;;;;;;32.97;15.43;;;4.90;98.70;;;;;;5032618;28;20025;-66
2021/01/08 04:47:11;;;;;;;28.95;15.25;;;4.90;98.60;;;;;;5031907;28;20024;-66
2021/01/08 04:49:38;;;;;;;28.23;14.35;;;4.90;98.60;;;;;;5032013;28;20112;-66
2021/01/08 04:52:09;;;;;;;30.40;14.50;;;4.90;98.60;;;;;;5031769;28;20083;-66
2021/01/08 04:54:36;;;;;;;30.50;15.50;;;4.90;98.70;;;;;;5032385;28;20484;-66
2021/01/08 04:57:04;;;;;;;31.05;14.35;;;4.90;98.60;;;;;;5031851;28;20029;-66
2021/01/08 04:59:30;;;;;;;26.45;15.13;;;4.90;98.70;;;;;;5033421;28;20067;-66
2021/01/08 05:01:59;;;;;;;27.27;14.40;;;4.90;98.70;;;;;;5033321;28;20483;-66
2021/01/08 05:04:25;;;;;;;26.75;14.43;;;4.90;98.80;;;;;;5031755;28;20056;-66
2021/01/08 05:06:51;;;;;;;29.95;14.55;;;4.90;98.60;;;;;;5033199;28;20030;-66
2021/01/08 05:09:17;;;;;;;28.67;14.95;;;4.90;98.50;;;;;;5032854;28;20026;-66
2021/01/08 05:11:46;;;;;;;26.70;14.23;;;4.90;98.60;;;;;;5031809;28;20025;-66
2021/01/08 05:14:15;;;;;;;26.67;14.55;;;5.00;98.60;;;;;;5032569;28;20065;-66
2021/01/08 05:16:41;;;;;;;26.67;14.25;;;4.90;98.50;;;;;;5031696;28;20464;-66
2021/01/08 05:19:08;;;;;;;28.58;15.30;;;4.90;98.60;;;;;;5031747;28;20464;-66
2021/01/08 05:21:34;;;;;;;26.58;13.20;;;4.90;98.60;;;;;;5032902;28;20020;-66
2021/01/08 05:24:03;;;;;;;27.25;13.90;;;4.90;98.50;;;;;;5032930;28;20112;-66
2021/01/08 05:26:29;;;;;;;27.02;14.82;;;4.90;98.50;;;;;;5032855;28;20460;-67
2021/01/08 05:29:00;;;;;;;27.55;13.65;;;4.90;98.50;;;;;;5031574;28;20036;-66
2021/01/08 05:31:29;;;;;;;27.23;14.25;;;4.90;98.50;;;;;;5031397;28;20021;-66
2021/01/08 05:33:55;;;;;;;26.38;15.23;;;5.00;98.50;;;;;;5032810;28;20112;-66
2021/01/08 05:36:23;;;;;;;28.92;15.02;;;4.90;98.60;;;;;;5031562;28;20116;-66
2021/01/08 05:38:53;;;;;;;28.35;14.18;;;5.00;98.60;;;;;;5031394;28;20025;-66
2021/01/08 05:41:22;;;;;;;30.98;16.48;;;5.00;98.50;;;;;;5032853;28;20445;-66
2021/01/08 05:43:48;;;;;;;28.77;13.82;;;5.00;98.30;;;;;;5031472;28;20055;-66
2021/01/08 05:46:24;;;;;;;28.45;14.98;;;5.00;98.20;;;;;;5035498;28;20148;-65
2021/01/08 05:48:58;;;;;;;26.58;14.57;;;5.00;98.20;;;;;;5035296;28;20026;-66
2021/01/08 05:51:28;;;;;;;27.67;14.77;;;5.00;98.20;;;;;;5036611;28;20525;-65
2021/01/08 05:53:59;;;;;;;25.50;14.52;;;5.00;98.30;;;;;;5034821;28;20080;-66
2021/01/08 05:56:25;;;;;;;30.25;14.38;;;5.00;98.30;;;;;;5035042;28;20025;-66
2021/01/08 05:58:51;;;;;;;28.77;15.43;;;5.00;98.30;;;;;;5035275;28;20029;-65
2021/01/08 06:01:17;;;;;;;28.52;15.15;;;5.00;98.30;;;;;;5036399;28;20060;-66
2021/01/08 06:03:45;;;;;;;28.08;14.82;;;4.90;98.10;;;;;;5035027;28;20040;-66
2021/01/08 06:06:12;;;;;;;28.65;14.65;;;4.90;98.10;;;;;;5035165;28;20454;-66
2021/01/08 06:08:45;;;;;;;30.52;15.18;;;4.90;98.20;;;;;;5035187;28;20095;-65
2021/01/08 06:11:20;;;;;;;29.73;15.40;;;4.90;98.10;;;;;;5035142;28;20116;-66
2021/01/08 06:13:53;;;;;;;29.13;15.23;;;5.00;98.10;;;;;;5036390;28;20026;-66
2021/01/08 06:16:21;;;;;;;31.55;15.88;;;4.90;98.00;;;;;;5035162;28;20112;-65
2021/01/08 06:18:49;;;;;;;28.95;14.30;;;4.90;98.00;;;;;;5034855;28;20448;-66
2021/01/08 06:21:17;;;;;;;29.95;15.77;;;4.90;98.10;;;;;;5034376;28;20357;-66
2021/01/08 06:23:47;;;;;;;28.23;15.13;;;4.90;98.20;;;;;;5034945;28;20045;-66
2021/01/08 06:26:18;;;;;;;29.27;13.82;;;4.90;97.90;;;;;;5035702;28;20067;-65
2021/01/08 06:28:47;;;;;;;29.70;15.02;;;4.90;97.90;;;;;;5035870;28;20032;-66
2021/01/08 06:31:21;;;;;;;29.70;14.68;;;4.90;97.90;;;;;;5034363;28;20041;-66
2021/01/08 06:34:00;;;;;;;27.83;13.20;;;4.90;97.90;;;;;;5035670;28;20029;-66
2021/01/08 06:36:27;;;;;;;24.20;12.85;;;4.90;97.90;;;;;;5034569;28;20022;-66
2021/01/08 06:38:58;;;;;;;25.02;12.40;;;4.90;97.70;;;;;;5034789;28;20018;-66
2021/01/08 06:41:24;;;;;;;23.90;12.60;;;4.90;97.60;;;;;;5034572;28;20199;-65
2021/01/08 06:43:54;;;;;;;27.52;13.02;;;5.00;97.60;;;;;;5033942;28;20033;-67
2021/01/08 06:46:39;;;;;;;24.08;12.63;;;4.90;97.70;;;;;;5035542;28;20113;-66
2021/01/08 06:49:10;;;;;;;25.70;13.60;;;5.00;97.90;;;;;;5034561;28;20479;-66
2021/01/08 06:51:40;;;;;;;29.50;14.73;;;5.00;97.90;;;;;;5035657;28;20029;-66
2021/01/08 06:54:11;;;;;;;28.02;14.27;;;5.00;98.00;;;;;;5035154;28;20044;-66
2021/01/08 06:56:42;;;;;;;31.15;16.45;;;5.10;98.10;;;;;;5033297;28;20033;-67
2021/01/08 06:59:09;;;;;;;32.67;16.10;;;5.10;98.10;;;;;;5035650;28;20366;-66
2021/01/08 07:01:54;;;;;;;27.27;14.18;;;5.20;98.10;;;;;;5034149;28;20379;-67
2021/01/08 07:04:27;;;;;;;25.85;12.75;;;5.20;98.00;;;;;;5033817;28;20025;-66
2021/01/08 07:06:54;;;;;;;26.10;13.52;;;5.20;97.90;;;;;;5035216;28;20482;-66
2021/01/08 07:09:23;;;;;;;23.02;11.32;;;5.20;97.50;;;;;;5033950;28;20026;-65
2021/01/08 07:11:54;;;;;;;22.20;12.15;;;5.20;97.50;;;;;;5034113;28;20109;-65
2021/01/08 07:14:22;;;;;;;23.42;11.43;;;5.20;97.40;;;;;;5033693;28;20079;-65
2021/01/08 07:16:51;;;;;;;18.23;10.43;;;5.20;97.20;;;;;;5035325;28;20079;-65
2021/01/08 07:19:23;;;;;;;20.02;10.38;;;5.10;97.20;;;;;;5034797;28;20175;-65
2021/01/08 07:21:59;;;;;;;18.77;10.55;;;5.10;97.30;;;;;;5033435;28;20079;-65
2021/01/08 07:24:30;;;;;;;19.92;10.32;;;5.20;97.20;;;;;;5034943;28;20076;-65
2021/01/08 07:27:14;;;;;;;19.45;10.45;;;5.20;97.10;;;;;;5033827;28;20060;-65
2021/01/08 07:29:40;;;;;;;17.33;9.23;;;5.10;97.10;;;;;;5034516;28;20025;-65
2021/01/08 07:32:06;;;;;;;19.25;10.07;;;5.10;97.10;;;;;;5033012;28;20072;-65
2021/01/08 07:34:34;;;;;;;16.65;9.25;;;5.10;96.80;;;;;;5035002;28;20061;-65
2021/01/08 07:37:00;;;;;;;17.73;9.05;;;5.10;96.90;;;;;;5033315;28;20021;-65
2021/01/08 07:39:42;;;;;;;18.27;9.93;;;5.10;96.90;;;;;;5034335;28;20101;-66
2021/01/08 07:42:29;;;;;;;16.92;9.88;;;5.10;97.00;;;;;;5034127;28;20033;-65
2021/01/08 07:44:55;;;;;;;17.67;9.73;;;5.10;96.90;;;;;;5034616;28;20041;-65
2021/01/08 07:47:26;;;;;;;16.33;9.27;;;5.10;96.90;;;;;;5033065;28;20376;-66
2021/01/08 07:50:05;;;;;;;18.55;9.18;;;5.00;96.60;;;;;;5034257;28;20527;-66
2021/01/08 07:52:36;;;;;;;19.17;10.27;;;5.00;96.70;;;;;;5033134;28;20032;-65
2021/01/08 07:55:02;;;;;;;16.95;9.13;;;5.00;96.70;;;;;;5033080;28;20102;-66
2021/01/08 07:57:27;;;;;;;21.58;10.60;;;5.10;96.90;;;;;;5032630;28;20108;-65
2021/01/08 07:59:53;;;;;;;19.08;11.27;;;5.10;97.00;;;;;;5034091;28;20483;-65
2021/01/08 08:02:20;;;;;;;18.48;10.60;;;5.10;97.00;;;;;;5033994;28;20021;-65
2021/01/08 08:04:46;;;;;;;21.65;10.90;;;5.20;97.10;;;;;;5032505;28;20018;-65
2021/01/08 08:07:13;;;;;;;21.52;11.20;;;5.20;97.20;;;;;;5031815;28;20116;-64
2021/01/08 08:09:39;;;;;;;20.20;11.07;;;5.30;97.10;;;;;;5032199;28;20021;-67
2021/01/08 08:12:10;;;;;;;20.45;11.57;;;5.30;96.90;;;;;;5033825;28;20108;-65
2021/01/08 08:14:35;;;;;;;21.40;11.40;;;5.40;96.80;;;;;;5035273;28;20036;-65
2021/01/08 08:17:01;;;;;;;24.52;13.38;;;5.40;96.80;;;;;;5032863;28;20025;-65
2021/01/08 08:19:34;;;;;;;24.00;13.32;;;5.40;96.60;;;;;;5032230;28;20124;-66
2021/01/08 08:22:00;;;;;;;25.80;13.30;;;5.40;96.60;;;;;;5033367;28;20460;-66
2021/01/08 08:24:27;;;;;;;24.77;12.57;;;5.40;96.40;;;;;;5033648;28;20028;-66
2021/01/08 08:26:55;;;;;;;26.58;12.82;;;5.30;96.10;;;;;;5041744;28;20032;-66
2021/01/08 08:29:22;;;;;;;24.60;12.70;;;5.30;96.10;;;;;;5036655;28;20029;-65
2021/01/08 08:31:50;;;;;;;21.20;12.40;;;5.30;95.70;;;;;;5032114;28;20035;-66
2021/01/08 08:34:27;;;;;;;27.42;13.23;;;5.20;95.60;;;;;;5032322;28;20029;-66
2021/01/08 08:36:53;;;;;;;27.23;14.85;;;5.20;96.00;;;;;;5036252;28;20021;-66
2021/01/08 08:39:19;;;;;;;26.55;14.48;;;5.20;95.70;;;;;;5032188;28;20483;-66
2021/01/08 08:41:47;;;;;;;27.75;14.23;;;5.20;95.90;;;;;;5032215;28;20032;-66
2021/01/08 08:44:17;;;;;;;26.80;14.20;;;5.30;96.00;;;;;;5032012;28;20456;-66
2021/01/08 08:46:50;;;;;;;25.45;13.63;;;5.30;96.00;;;;;;5033208;28;20029;-67
2021/01/08 08:49:31;;;;;;;24.80;13.40;;;5.20;95.90;;;;;;5031892;28;20035;-66
2021/01/08 08:51:57;;;;;;;27.60;15.02;;;5.20;95.80;;;;;;5032976;28;20352;-66
2021/01/08 08:54:24;;;;;;;26.38;14.30;;;5.20;95.80;;;;;;5033486;28;20030;-66
2021/01/08 08:56:55;;;;;;;32.38;16.25;;;5.10;95.70;;;;;;5032017;28;20045;-66
2021/01/08 08:59:38;;;;;;;29.38;13.90;;;5.10;95.90;;;;;;5033292;28;20021;-66
2021/01/08 09:02:04;;;;;;;26.75;13.88;;;5.20;95.90;;;;;;5031702;28;20025;-66
2021/01/08 09:04:30;;;;;;;26.23;13.13;;;5.20;95.70;;;;;;5032438;28;20021;-66
2021/01/08 09:07:00;;;;;;;22.10;12.30;;;5.20;95.50;;;;;;5033310;28;20487;-66
2021/01/08 09:09:28;;;;;;;23.48;12.80;;;5.20;95.70;;;;;;5032889;28;20025;-66
2021/01/08 09:12:23;;;;;;;21.27;12.10;;;5.20;95.50;;;;;;5031482;28;20047;-66
2021/01/08 09:14:49;;;;;;;19.10;10.93;;;5.20;95.60;;;;;;5032176;28;20035;-66
2021/01/08 09:17:22;;;;;;;17.67;9.63;;;5.20;95.50;;;;;;5031900;28;20076;-66
2021/01/08 09:20:00;;;;;;;19.27;10.15;;;5.20;95.50;;;;;;5037210;28;20028;-66
2021/01/08 09:22:28;;;;;;;16.23;9.00;;;5.10;95.40;;;;;;5035715;28;20026;-67
2021/01/08 09:24:59;;;;;;;20.95;11.02;;;5.20;95.30;;;;;;5035841;28;20451;-66
2021/01/08 09:27:25;;;;;;;18.02;10.35;;;5.10;95.10;;;;;;5036077;28;20029;-67
2021/01/08 09:29:51;;;;;;;19.30;10.88;;;5.00;94.80;;;;;;5035324;28;20049;-64
2021/01/08 09:32:31;;;;;;;19.85;11.70;;;5.00;95.10;;;;;;5035572;28;20075;-64
2021/01/08 09:35:02;;;;;;;22.20;11.80;;;5.00;95.30;;;;;;5036594;28;20043;-68
2021/01/08 09:37:39;;;;;;;20.90;11.38;;;5.00;95.00;;;;;;5036877;28;20021;-66
2021/01/08 09:40:09;;;;;;;21.20;11.02;;;5.00;95.20;;;;;;5036547;28;20050;-66
2021/01/08 09:42:37;;;;;;;20.48;10.93;;;5.10;95.30;;;;;;5036782;28;20034;-66
2021/01/08 09:45:17;;;;;;;21.13;11.48;;;5.10;95.10;;;;;;5035156;28;20029;-66
2021/01/08 09:47:42;;;;;;;18.20;10.85;;;5.10;95.10;;;;;;5036531;28;20456;-66
2021/01/08 09:50:09;;;;;;;18.83;11.55;;;5.10;94.80;;;;;;5035958;28;20092;-64
2021/01/08 09:52:35;;;;;;;20.38;11.48;;;5.10;94.80;;;;;;5035094;28;20455;-65
2021/01/08 09:55:02;;;;;;;19.80;11.23;;;5.20;94.60;;;;;;5036344;28;20080;-65
2021/01/08 09:57:35;;;;;;;18.75;10.20;;;5.10;94.60;;;;;;5036222;28;20026;-65
2021/01/08 10:00:05;;;;;;;20.98;10.88;;;5.10;94.40;;;;;;5034885;28;20029;-67
2021/01/08 10:02:46;;;;;;;20.13;10.77;;;5.10;94.20;;;;;;5036255;28;20025;-66
2021/01/08 10:05:28;;;;;;;17.27;10.27;;;5.10;94.30;;;;;;5036286;28;20464;-66
2021/01/08 10:07:55;;;;;;;19.15;10.30;;;5.10;94.50;;;;;;5034859;28;20031;-66
2021/01/08 10:10:27;;;;;;;18.80;10.48;;;5.10;94.50;;;;;;5034953;28;20036;-66
2021/01/08 10:12:55;;;;;;;19.33;11.07;;;5.10;94.40;;;;;;5035974;28;20108;-65
2021/01/08 10:15:37;;;;;;;18.52;11.20;;;5.20;94.70;;;;;;5036321;28;20025;-66
2021/01/08 10:18:07;;;;;;;20.08;11.65;;;5.20;94.50;;;;;;5034768;28;20049;-66
2021/01/08 10:20:43;;;;;;;18.98;10.80;;;5.20;94.10;;;;;;5035982;28;20064;-66
2021/01/08 10:23:10;;;;;;;20.75;11.90;;;5.10;93.70;;;;;;5036044;28;20036;-66
2021/01/08 10:25:36;;;;;;;21.60;10.95;;;5.10;93.70;;;;;;5034954;28;20460;-65
2021/01/08 10:28:25;;;;;;;21.20;11.05;;;5.10;93.60;;;;;;5035570;28;20075;-66
2021/01/08 10:30:53;;;;;;;19.80;11.10;;;5.10;93.90;;;;;;5034915;28;20034;-66
2021/01/08 10:33:24;;;;;;;19.55;12.05;;;5.10;94.10;;;;;;5034464;28;20068;-66
2021/01/08 10:35:52;;;;;;;22.38;12.35;;;5.10;93.90;;;;;;5034513;28;20120;-68
2021/01/08 10:38:19;;;;;;;21.73;12.88;;;5.10;93.70;;;;;;5034299;28;20049;-66
2021/01/08 10:40:44;;;;;;;22.23;12.43;;;5.10;93.60;;;;;;5034437;28;20046;-66
2021/01/08 10:43:11;;;;;;;23.23;13.30;;;5.00;93.50;;;;;;5034213;28;20049;-67
2021/01/08 10:45:37;;;;;;;21.63;11.93;;;4.90;93.60;;;;;;5034128;28;20036;-65
2021/01/08 10:48:04;;;;;;;20.55;11.13;;;5.00;93.70;;;;;;5034303;28;20464;-66
2021/01/08 10:50:29;;;;;;;20.58;11.65;;;5.00;93.80;;;;;;5034907;28;20209;-66
2021/01/08 10:52:55;;;;;;;21.02;12.13;;;5.00;93.90;;;;;;5035090;28;20108;-66
2021/01/08 10:55:21;;;;;;;22.83;13.05;;;5.00;93.90;;;;;;5033557;28;20125;-66
2021/01/08 10:57:46;;;;;;;23.60;12.60;;;5.00;93.90;;;;;;5035041;28;20132;-65
2021/01/08 11:00:14;;;;;;;25.95;14.93;;;5.10;94.20;;;;;;5035371;28;20083;-66
2021/01/08 11:02:40;;;;;;;30.90;16.27;;;5.10;93.70;;;;;;5034964;28;20032;-65
2021/01/08 11:05:07;;;;;;;27.85;15.52;;;5.10;93.50;;;;;;5034274;28;20460;-66
2021/01/08 11:07:33;;;;;;;21.42;12.15;;;5.10;93.50;;;;;;5033760;28;20018;-65
2021/01/08 11:10:04;;;;;;;20.50;11.18;;;5.00;93.30;;;;;;5033991;28;20440;-65
2021/01/08 11:12:31;;;;;;;18.80;11.60;;;5.00;93.20;;;;;;5033824;28;20384;-65
2021/01/08 11:14:57;;;;;;;22.05;13.93;;;4.90;92.80;;;;;;5035137;28;20025;-65
2021/01/08 11:17:23;;;;;;;23.58;12.93;;;4.90;92.90;;;;;;5033350;28;20037;-66
2021/01/08 11:19:49;;;;;;;25.52;14.68;;;4.90;92.80;;;;;;5033270;28;20054;-71
2021/01/08 11:22:15;;;;;;;25.65;14.95;;;4.90;92.60;;;;;;5034974;28;20065;-65
2021/01/08 11:24:41;;;;;;;25.77;15.77;;;4.80;92.70;;;;;;5033501;28;20022;-65
2021/01/08 11:27:07;;;;;;;22.65;14.35;;;4.70;92.80;;;;;;5034747;28;20029;-65
2021/01/08 11:29:34;;;;;;;25.83;14.45;;;4.70;93.10;;;;;;5034506;28;20053;-66
2021/01/08 11:32:00;;;;;;;22.02;13.40;;;4.70;93.10;;;;;;5034211;28;20037;-65
2021/01/08 11:34:25;;;;;;;38.60;26.10;;;4.70;93.10;;;;;;5034523;28;20074;-65
2021/01/08 11:36:55;;;;;;;39.95;26.77;;;4.80;93.20;;;;;;5047133;28;20022;-65
2021/01/08 11:39:21;;;;;;;37.95;24.95;;;4.80;92.90;;;;;;5033083;28;20503;-65
2021/01/08 11:41:47;;;;;;;29.83;19.17;;;4.70;92.90;;;;;;5033084;28;20033;-65
2021/01/08 11:44:13;;;;;;;36.47;21.95;;;4.70;92.80;;;;;;5032862;28;20048;-66
2021/01/08 11:46:39;;;;;;;44.05;24.00;;;4.60;92.60;;;;;;5033592;28;20456;-66
2021/01/08 11:49:04;;;;;;;37.10;20.58;;;4.60;92.60;;;;;;5035881;28;20025;-65
2021/01/08 11:51:30;;;;;;;35.10;19.13;;;4.50;92.70;;;;;;5034173;28;20025;-65
2021/01/08 11:53:56;;;;;;;34.45;18.42;;;4.50;92.80;;;;;;5033749;28;20025;-65
2021/01/08 11:56:31;;;;;;;35.30;18.60;;;4.50;92.80;;;;;;5034378;28;20061;-65
2021/01/08 11:58:57;;;;;;;29.27;16.00;;;4.50;92.90;;;;;;5032696;28;20032;-66
2021/01/08 12:01:24;;;;;;;26.83;14.77;;;4.60;92.90;;;;;;5032884;28;20060;-67
2021/01/08 12:03:50;;;;;;;26.63;16.42;;;4.60;92.80;;;;;;5032571;28;20041;-67
2021/01/08 12:06:16;;;;;;;24.38;14.80;;;4.50;92.60;;;;;;5034107;28;20460;-67
2021/01/08 12:08:42;;;;;;;24.08;13.77;;;4.50;92.60;;;;;;5032887;28;20040;-66
2021/01/08 12:11:08;;;;;;;20.80;12.13;;;4.50;92.60;;;;;;5032385;28;20030;-66
2021/01/08 12:13:34;;;;;;;21.92;12.98;;;4.50;92.60;;;;;;5032542;28;20392;-65
2021/01/08 12:16:00;;;;;;;24.52;14.10;;;4.50;92.50;;;;;;5033906;28;20025;-66
2021/01/08 12:18:25;;;;;;;25.55;14.70;;;4.50;92.50;;;;;;5033005;28;20017;-66
2021/01/08 12:20:51;;;;;;;26.75;14.95;;;4.40;92.50;;;;;;5033619;28;20180;-66
2021/01/08 12:23:17;;;;;;;25.05;13.48;;;4.40;92.60;;;;;;5033794;28;20033;-66
2021/01/08 12:25:43;;;;;;;20.15;12.95;;;4.40;92.80;;;;;;5032484;28;20115;-65
2021/01/08 12:28:10;;;;;;;25.08;14.25;;;4.40;92.50;;;;;;5031875;28;20029;-66
2021/01/08 12:30:37;;;;;;;23.00;14.05;;;4.40;92.30;;;;;;5032638;28;20168;-66
2021/01/08 12:33:04;;;;;;;22.15;13.32;;;4.40;92.30;;;;;;5032423;28;20040;-66
2021/01/08 12:35:30;;;;;;;25.10;14.35;;;4.40;92.50;;;;;;5033741;28;20112;-65
2021/01/08 12:37:56;;;;;;;30.45;16.48;;;4.50;92.50;;;;;;5031877;28;20107;-65
2021/01/08 12:40:22;;;;;;;19.00;10.23;;;4.50;92.50;;;;;;5031850;28;20487;-66
2021/01/08 12:42:52;;;;;;;21.83;12.85;;;4.50;92.10;;;;;;5032405;28;20029;-65
2021/01/08 12:45:18;;;;;;;26.92;13.07;;;4.50;91.70;;;;;;5033487;28;20135;-66
2021/01/08 12:47:45;;;;;;;25.35;13.70;;;4.40;91.80;;;;;;5031981;28;20022;-65